createdAt,value
2019-01-23T00:00:58.891Z,100113.28
2019-01-23T00:03:31.914Z,100108.98
2019-01-23T00:06:05.748Z,100102.42
2019-01-23T00:08:39.295Z,100099.78
2019-01-23T00:11:13.396Z,100093.84
2019-01-23T00:13:55.594Z,100099.11
2019-01-23T00:16:28.877Z,100090.23
2019-01-23T00:19:02.224Z,100091.54
2019-01-23T00:21:35.735Z,100092.55
2019-01-23T00:24:09.906Z,100092.85
2019-01-23T00:26:44.492Z,100084.61
2019-01-23T00:29:27.556Z,100083.68
2019-01-23T00:32:01.761Z,100082.80
2019-01-23T00:34:44.578Z,100076.05
2019-01-23T00:37:17.770Z,100078.63
2019-01-23T00:39:51.416Z,100079.12
2019-01-23T00:42:26.648Z,100069.61
2019-01-23T00:44:59.945Z,100062.17
2019-01-23T00:47:33.702Z,100067.60
2019-01-23T00:50:07.755Z,100068.88
2019-01-23T00:52:41.182Z,100064.63
2019-01-23T00:55:15.441Z,100064.27
2019-01-23T00:58:00.392Z,100053.95
2019-01-23T01:00:34.202Z,100059.79
2019-01-23T01:03:07.779Z,100054.34
2019-01-23T01:05:41.105Z,100053.53
2019-01-23T01:08:15.051Z,100058.75
2019-01-23T01:10:48.362Z,100062.37
2019-01-23T01:13:22.880Z,100062.30
2019-01-23T01:16:05.332Z,100059.33
2019-01-23T01:18:48.335Z,100066.17
2019-01-23T01:21:30.758Z,100054.16
2019-01-23T01:24:04.393Z,100056.20
2019-01-23T01:26:37.567Z,100061.81
2019-01-23T01:29:11.078Z,100058.35
2019-01-23T01:31:47.099Z,100065.56
2019-01-23T01:34:29.288Z,100056.22
2019-01-23T01:37:02.425Z,100056.73
2019-01-23T01:39:37.058Z,100063.63
2019-01-23T01:42:19.674Z,100056.45
2019-01-23T01:44:53.109Z,100057.51
2019-01-23T01:47:26.426Z,100067.19
2019-01-23T01:50:00.027Z,100061.53
2019-01-23T01:52:33.639Z,100063.62
2019-01-23T01:55:08.314Z,100061.27
2019-01-23T01:57:56.962Z,100060.22
2019-01-23T02:00:39.857Z,100051.45
2019-01-23T02:03:15.436Z,100057.94
2019-01-23T02:05:57.800Z,100064.00
2019-01-23T02:08:31.593Z,100060.62
2019-01-23T02:11:13.784Z,100055.22
2019-01-23T02:13:50.471Z,100059.70
2019-01-23T02:16:23.327Z,100060.39
2019-01-23T02:19:05.342Z,100056.23
2019-01-23T02:21:38.490Z,100053.28
2019-01-23T02:24:11.683Z,100051.42
2019-01-23T02:26:54.085Z,100047.84
2019-01-23T02:29:27.577Z,100047.03
2019-01-23T02:32:01.434Z,100048.00
2019-01-23T02:34:35.361Z,100040.75
2019-01-23T02:37:18.100Z,100036.44
2019-01-23T02:40:00.346Z,100039.98
2019-01-23T02:42:33.508Z,100037.20
2019-01-23T02:45:08.000Z,100038.70
2019-01-23T02:47:51.524Z,100041.25
2019-01-23T02:50:33.981Z,100040.98
2019-01-23T02:53:07.622Z,100038.86
2019-01-23T02:55:42.937Z,100036.77
2019-01-23T02:58:17.407Z,100032.02
2019-01-23T03:00:55.501Z,100035.02
2019-01-23T03:03:38.838Z,100030.44
2019-01-23T03:06:12.321Z,100029.07
2019-01-23T03:08:46.243Z,100029.53
2019-01-23T03:11:19.441Z,100034.61
2019-01-23T03:13:52.926Z,100033.56
2019-01-23T03:16:26.636Z,100037.22
2019-01-23T03:19:00.229Z,100034.83
2019-01-23T03:21:33.762Z,100029.89
2019-01-23T03:24:07.253Z,100034.43
2019-01-23T03:26:41.771Z,100033.17
2019-01-23T03:29:15.154Z,100031.81
2019-01-23T03:31:49.350Z,100031.55
2019-01-23T03:34:32.170Z,100025.47
2019-01-23T03:37:05.566Z,100028.93
2019-01-23T03:39:38.840Z,100029.20
2019-01-23T03:42:12.021Z,100025.91
2019-01-23T03:44:54.858Z,100026.58
2019-01-23T03:47:39.174Z,100024.31
2019-01-23T03:50:23.705Z,100024.55
2019-01-23T03:52:57.309Z,100029.66
2019-01-23T03:55:30.534Z,100035.02
2019-01-23T03:58:05.990Z,100031.02
2019-01-23T04:00:39.490Z,100028.00
2019-01-23T04:03:12.990Z,100031.52
2019-01-23T04:05:46.455Z,100038.66
2019-01-23T04:08:19.918Z,100036.36
2019-01-23T04:10:55.328Z,100037.20
2019-01-23T04:13:29.145Z,100040.97
2019-01-23T04:16:02.975Z,100037.00
2019-01-23T04:18:36.801Z,100035.39
2019-01-23T04:21:19.041Z,100034.58
2019-01-23T04:23:52.525Z,100031.71
2019-01-23T04:26:26.024Z,100031.45
2019-01-23T04:28:59.972Z,100029.94
2019-01-23T04:31:33.780Z,100035.63
2019-01-23T04:34:07.531Z,100032.61
2019-01-23T04:36:50.837Z,100028.34
2019-01-23T04:39:33.008Z,100032.06
2019-01-23T04:42:12.181Z,100031.66
2019-01-23T04:44:55.489Z,100031.52
2019-01-23T04:47:29.123Z,100037.25
2019-01-23T04:50:02.796Z,100036.84
2019-01-23T04:52:50.437Z,100037.50
2019-01-23T04:55:23.546Z,100033.93
2019-01-23T04:58:06.953Z,100037.94
2019-01-23T05:00:40.862Z,100044.89
2019-01-23T05:03:14.155Z,100043.73
2019-01-23T05:05:48.498Z,100045.79
2019-01-23T05:08:30.953Z,100044.80
2019-01-23T05:11:04.225Z,100039.70
2019-01-23T05:13:38.068Z,100044.52
2019-01-23T05:16:11.552Z,100039.61
2019-01-23T05:18:54.963Z,100026.87
2019-01-23T05:21:29.506Z,100034.88
2019-01-23T05:24:02.842Z,100026.83
2019-01-23T05:26:45.621Z,100029.23
2019-01-23T05:29:29.746Z,100029.16
2019-01-23T05:32:12.575Z,100028.84
2019-01-23T05:34:54.728Z,100032.50
2019-01-23T05:37:27.897Z,100031.22
2019-01-23T05:40:01.428Z,100030.52
2019-01-23T05:42:35.362Z,100027.75
2019-01-23T05:45:10.602Z,100034.19
2019-01-23T05:47:46.485Z,100032.45
2019-01-23T05:50:28.724Z,100038.40
2019-01-23T05:53:02.648Z,100046.38
2019-01-23T05:55:35.762Z,100032.55
2019-01-23T05:58:10.156Z,100040.55
2019-01-23T06:00:58.814Z,100040.54
2019-01-23T06:03:32.650Z,100040.25
2019-01-23T06:06:05.768Z,100042.56
2019-01-23T06:08:39.279Z,100045.78
2019-01-23T06:11:13.243Z,100047.80
2019-01-23T06:13:46.614Z,100043.22
2019-01-23T06:16:20.310Z,100039.89
2019-01-23T06:18:53.726Z,100046.44
2019-01-23T06:21:27.281Z,100046.60
2019-01-23T06:24:00.843Z,100047.77
2019-01-23T06:26:34.613Z,100045.09
2019-01-23T06:29:08.765Z,100045.98
2019-01-23T06:31:51.408Z,100049.17
2019-01-23T06:34:23.206Z,100053.05
2019-01-23T06:36:57.487Z,100053.24
2019-01-23T06:39:39.360Z,100052.13
2019-01-23T06:42:12.617Z,100057.18
2019-01-23T06:44:46.405Z,100058.22
2019-01-23T06:47:19.618Z,100059.29
2019-01-23T06:50:02.630Z,100058.57
2019-01-23T06:52:35.760Z,100063.66
2019-01-23T06:55:09.585Z,100069.94
2019-01-23T06:57:43.015Z,100075.49
2019-01-23T07:00:19.073Z,100081.68
2019-01-23T07:03:01.026Z,100074.98
2019-01-23T07:05:34.210Z,100087.06
2019-01-23T07:08:07.331Z,100085.00
2019-01-23T07:10:50.252Z,100087.81
2019-01-23T07:13:33.139Z,100088.63
2019-01-23T07:16:06.606Z,100087.11
2019-01-23T07:18:40.030Z,100089.67
2019-01-23T07:21:14.944Z,100093.69
2019-01-23T07:23:49.028Z,100088.02
2019-01-23T07:26:22.717Z,100097.08
2019-01-23T07:28:56.287Z,100098.63
2019-01-23T07:31:29.819Z,100105.37
2019-01-23T07:34:03.739Z,100098.63
2019-01-23T07:36:36.855Z,100102.41
2019-01-23T07:39:11.385Z,100100.44
2019-01-23T07:41:53.593Z,100101.74
2019-01-23T07:44:27.060Z,100104.68
2019-01-23T07:47:00.843Z,100112.82
2019-01-23T07:49:34.397Z,100108.14
2019-01-23T07:52:08.231Z,100104.82
2019-01-23T07:54:41.691Z,100104.73
2019-01-23T07:57:14.869Z,100107.55
2019-01-23T07:59:48.352Z,100109.87
2019-01-23T08:02:22.539Z,100109.08
2019-01-23T08:04:56.331Z,100114.66
2019-01-23T08:07:29.725Z,100122.02
2019-01-23T08:10:02.847Z,100119.40
2019-01-23T08:12:36.700Z,100128.61
2019-01-23T08:15:17.864Z,100123.72
2019-01-23T08:17:51.043Z,100124.98
2019-01-23T08:20:34.509Z,100130.86
2019-01-23T08:23:08.362Z,100129.30
2019-01-23T08:25:51.304Z,100129.16
2019-01-23T08:28:33.507Z,100126.14
2019-01-23T08:31:07.069Z,100135.45
2019-01-23T08:33:40.223Z,100134.49
2019-01-23T08:36:15.566Z,100134.14
2019-01-23T08:38:49.460Z,100135.92
2019-01-23T08:41:22.889Z,100132.27
2019-01-23T08:43:56.287Z,100129.36
2019-01-23T08:46:29.383Z,100137.51
2019-01-23T08:49:11.470Z,100134.09
2019-01-23T08:51:44.937Z,100137.91
2019-01-23T08:54:18.195Z,100140.43
2019-01-23T08:56:52.546Z,100148.32
2019-01-23T08:59:26.910Z,100146.05
2019-01-23T09:01:59.959Z,100151.60
2019-01-23T09:04:33.183Z,100147.67
2019-01-23T09:07:06.950Z,100146.02
2019-01-23T09:09:40.650Z,100155.13
2019-01-23T09:12:14.241Z,100152.89
2019-01-23T09:14:47.796Z,100154.94
2019-01-23T09:17:21.881Z,100156.09
2019-01-23T09:20:04.395Z,100151.82
2019-01-23T09:22:38.938Z,100160.45
2019-01-23T09:25:13.937Z,100156.88
2019-01-23T09:27:58.086Z,100169.02
2019-01-23T09:30:43.524Z,100160.61
2019-01-23T09:34:15.598Z,100160.19
2019-01-23T09:37:26.406Z,100173.76
2019-01-23T09:40:35.705Z,100169.25
2019-01-23T09:43:22.400Z,100166.63
2019-01-23T09:46:41.807Z,100168.02
2019-01-23T09:49:56.252Z,100174.72
2019-01-23T09:53:03.383Z,100173.37
2019-01-23T09:55:37.298Z,100169.28
2019-01-23T09:58:11.952Z,100169.31
2019-01-23T10:00:59.891Z,100162.93
2019-01-23T10:03:49.285Z,100162.06
2019-01-23T10:06:23.389Z,100158.40
2019-01-23T10:09:10.700Z,100160.92
2019-01-23T10:11:44.005Z,100164.86
2019-01-23T10:14:17.900Z,100171.27
2019-01-23T10:16:52.170Z,100169.56
2019-01-23T10:19:25.489Z,100175.55
2019-01-23T10:22:11.184Z,100170.55
2019-01-23T10:24:46.120Z,100167.72
2019-01-23T10:27:19.748Z,100169.56
2019-01-23T10:29:53.508Z,100170.08
2019-01-23T10:32:27.715Z,100164.09
2019-01-23T10:35:02.105Z,100162.98
2019-01-23T10:37:36.000Z,100165.37
2019-01-23T10:40:12.431Z,100161.08
2019-01-23T10:42:47.445Z,100164.58
2019-01-23T10:45:21.369Z,100167.56
2019-01-23T10:47:56.200Z,100168.22
2019-01-23T10:50:30.382Z,100167.77
2019-01-23T10:53:03.892Z,100159.54
2019-01-23T10:55:37.001Z,100162.34
2019-01-23T10:58:11.220Z,100166.27
2019-01-23T11:00:44.447Z,100159.50
2019-01-23T11:03:18.328Z,100161.52
2019-01-23T11:05:52.069Z,100160.05
2019-01-23T11:08:37.608Z,100153.72
2019-01-23T11:11:10.520Z,100149.09
2019-01-23T11:13:44.177Z,100146.81
2019-01-23T11:16:17.189Z,100153.57
2019-01-23T11:19:07.942Z,100154.92
2019-01-23T11:21:59.918Z,100150.14
2019-01-23T11:24:52.247Z,100146.19
2019-01-23T11:27:42.310Z,100153.74
2019-01-23T11:30:22.104Z,100154.89
2019-01-23T11:32:56.024Z,100161.47
2019-01-23T11:35:42.433Z,100154.58
2019-01-23T11:38:27.515Z,100154.42
2019-01-23T11:41:01.239Z,100157.34
2019-01-23T11:43:35.950Z,100152.42
2019-01-23T11:46:10.154Z,100156.53
2019-01-23T11:49:01.507Z,100148.34
2019-01-23T11:51:34.688Z,100156.72
2019-01-23T11:54:07.593Z,100155.74
2019-01-23T11:56:57.429Z,100156.75
2019-01-23T11:59:32.006Z,100157.73
2019-01-23T12:02:05.960Z,100155.11
2019-01-23T12:04:40.176Z,100148.05
2019-01-23T12:07:29.886Z,100145.08
2019-01-23T12:10:21.669Z,100146.91
2019-01-23T12:13:12.335Z,100148.22
2019-01-23T12:15:45.864Z,100157.78
2019-01-23T12:18:18.831Z,100149.20
2019-01-23T12:20:52.647Z,100160.58
2019-01-23T12:23:26.698Z,100160.06
2019-01-23T12:26:00.503Z,100158.61
2019-01-23T12:28:51.979Z,100156.28
2019-01-23T12:31:26.413Z,100159.09
2019-01-23T12:34:17.815Z,100152.81
2019-01-23T12:37:03.487Z,100161.38
2019-01-23T12:39:37.680Z,100155.42
2019-01-23T12:42:29.547Z,100150.94
2019-01-23T12:45:23.036Z,100153.57
2019-01-23T12:47:57.345Z,100152.09
2019-01-23T12:50:32.508Z,100157.22
2019-01-23T12:53:05.467Z,100160.70
2019-01-23T12:55:39.449Z,100154.42
2019-01-23T12:58:13.962Z,100158.41
2019-01-23T13:00:58.579Z,100158.77
2019-01-23T13:03:32.215Z,100160.25
2019-01-23T13:06:18.321Z,100161.05
2019-01-23T13:09:05.895Z,100161.55
2019-01-23T13:11:57.526Z,100166.66
2019-01-23T13:14:29.945Z,100164.66
2019-01-23T13:17:12.500Z,100164.00
2019-01-23T13:19:45.953Z,100164.67
2019-01-23T13:22:19.089Z,100162.34
2019-01-23T13:24:52.711Z,100163.33
2019-01-23T13:27:25.877Z,100168.91
2019-01-23T13:30:10.506Z,100161.30
2019-01-23T13:32:43.960Z,100165.58
2019-01-23T13:35:28.889Z,100162.94
2019-01-23T13:38:03.512Z,100167.88
2019-01-23T13:40:37.871Z,100169.37
2019-01-23T13:43:11.319Z,100169.37
2019-01-23T13:45:47.871Z,100167.44
2019-01-23T13:48:21.117Z,100172.20
2019-01-23T13:51:03.194Z,100169.07
2019-01-23T13:53:38.187Z,100173.52
2019-01-23T13:56:11.355Z,100173.34
2019-01-23T13:58:45.230Z,100175.33
2019-01-23T14:01:18.769Z,100171.88
2019-01-23T14:03:52.001Z,100175.14
2019-01-23T14:06:25.279Z,100177.60
2019-01-23T14:09:08.661Z,100177.94
2019-01-23T14:11:42.624Z,100184.39
2019-01-23T14:14:16.097Z,100183.73
2019-01-23T14:16:50.502Z,100185.70
2019-01-23T14:19:39.150Z,100186.88
2019-01-23T14:22:12.321Z,100183.91
2019-01-23T14:24:45.991Z,100181.14
2019-01-23T14:27:19.507Z,100183.74
2019-01-23T14:29:53.032Z,100186.21
2019-01-23T14:32:25.192Z,100191.16
2019-01-23T14:35:08.348Z,100188.84
2019-01-23T14:37:42.119Z,100186.88
2019-01-23T14:40:24.493Z,100188.36
2019-01-23T14:42:57.090Z,100196.61
2019-01-23T14:45:30.134Z,100194.33
2019-01-23T14:48:04.805Z,100201.05
2019-01-23T14:50:40.088Z,100192.17
2019-01-23T14:53:14.948Z,100198.94
2019-01-23T14:55:58.068Z,100202.55
2019-01-23T14:58:32.040Z,100203.53
2019-01-23T15:01:07.044Z,100203.53
2019-01-23T15:03:49.683Z,100201.08
2019-01-23T15:06:22.824Z,100209.45
2019-01-23T15:08:55.765Z,100209.78
2019-01-23T15:11:28.337Z,100215.05
2019-01-23T15:14:02.682Z,100222.95
2019-01-23T15:16:44.982Z,100223.45
2019-01-23T15:19:19.837Z,100232.50
2019-01-23T15:21:52.973Z,100233.98
2019-01-23T15:24:35.781Z,100236.79
2019-01-23T15:27:18.433Z,100242.53
2019-01-23T15:29:53.082Z,100249.39
2019-01-23T15:32:26.860Z,100255.13
2019-01-23T15:34:59.982Z,100257.41
2019-01-23T15:37:33.422Z,100261.52
2019-01-23T15:40:08.260Z,100265.62
2019-01-23T15:42:41.510Z,100269.69
2019-01-23T15:45:14.792Z,100268.55
2019-01-23T15:48:04.924Z,100277.58
2019-01-23T15:50:37.751Z,100286.75
2019-01-23T15:53:11.385Z,100295.44
2019-01-23T15:55:44.840Z,100295.09
2019-01-23T15:58:18.056Z,100300.52
2019-01-23T16:00:51.178Z,100307.58
2019-01-23T16:03:39.308Z,100308.23
2019-01-23T16:06:12.783Z,100308.98
2019-01-23T16:08:45.975Z,100316.20
2019-01-23T16:11:19.343Z,100315.70
2019-01-23T16:14:01.765Z,100310.83
2019-01-23T16:16:52.722Z,100317.40
2019-01-23T16:19:27.934Z,100322.31
2019-01-23T16:22:01.589Z,100326.71
2019-01-23T16:24:34.760Z,100323.95
2019-01-23T16:27:07.999Z,100321.34
2019-01-23T16:29:42.006Z,100326.77
2019-01-23T16:32:15.736Z,100327.38
2019-01-23T16:34:48.901Z,100328.03
2019-01-23T16:37:22.576Z,100339.05
2019-01-23T16:39:56.263Z,100342.31
2019-01-23T16:42:29.482Z,100337.41
2019-01-23T16:45:19.371Z,100345.83
2019-01-23T16:47:52.492Z,100357.82
2019-01-23T16:50:26.310Z,100358.63
2019-01-23T16:52:59.805Z,100362.81
2019-01-23T16:55:33.270Z,100366.13
2019-01-23T16:58:07.673Z,100367.13
2019-01-23T17:00:50.535Z,100368.30
2019-01-23T17:03:35.574Z,100366.96
2019-01-23T17:06:10.278Z,100370.75
2019-01-23T17:08:52.654Z,100369.64
2019-01-23T17:11:25.815Z,100362.52
2019-01-23T17:13:59.997Z,100381.13
2019-01-23T17:16:44.523Z,100377.57
2019-01-23T17:19:20.434Z,100378.03
2019-01-23T17:21:55.302Z,100383.92
2019-01-23T17:24:29.026Z,100394.11
2019-01-23T17:27:03.183Z,100392.58
2019-01-23T17:29:49.553Z,100390.87
2019-01-23T17:32:24.123Z,100392.36
2019-01-23T17:34:59.273Z,100400.39
2019-01-23T17:37:32.999Z,100394.36
2019-01-23T17:40:08.090Z,100404.36
2019-01-23T17:42:41.639Z,100403.88
2019-01-23T17:45:18.259Z,100408.69
2019-01-23T17:47:52.104Z,100406.83
2019-01-23T17:50:25.908Z,100411.30
2019-01-23T17:52:58.505Z,100405.70
2019-01-23T17:55:42.430Z,100411.34
2019-01-23T17:58:24.507Z,100413.81
2019-01-23T18:00:59.169Z,100410.52
2019-01-23T18:03:32.614Z,100415.13
2019-01-23T18:06:16.292Z,100413.38
2019-01-23T18:08:58.693Z,100419.09
2019-01-23T18:11:31.965Z,100420.23
2019-01-23T18:14:07.152Z,100426.81
2019-01-23T18:16:41.042Z,100422.87
2019-01-23T18:19:16.238Z,100424.14
2019-01-23T18:21:49.474Z,100427.70
2019-01-23T18:24:24.085Z,100428.20
2019-01-23T18:27:06.309Z,100429.64
2019-01-23T18:29:39.653Z,100436.88
2019-01-23T18:32:14.597Z,100435.46
2019-01-23T18:35:13.710Z,100440.30
2019-01-23T18:38:25.208Z,100448.03
2019-01-23T18:41:35.231Z,100443.25
2019-01-23T18:45:01.265Z,100452.62
2019-01-23T18:48:25.236Z,100459.69
2019-01-23T18:51:22.113Z,100457.03
2019-01-23T18:53:55.285Z,100459.13
2019-01-23T18:56:29.250Z,100461.36
2019-01-23T18:59:02.400Z,100460.70
2019-01-23T19:01:36.578Z,100460.52
2019-01-23T19:04:19.855Z,100462.48
2019-01-23T19:06:53.817Z,100462.20
2019-01-23T19:09:26.978Z,100466.78
2019-01-23T19:12:02.507Z,100471.47
2019-01-23T19:14:36.079Z,100467.66
2019-01-23T19:17:09.272Z,100477.45
2019-01-23T19:19:42.759Z,100476.14
2019-01-23T19:22:16.341Z,100478.80
2019-01-23T19:24:49.836Z,100472.20
2019-01-23T19:27:35.311Z,100475.27
2019-01-23T19:30:11.377Z,100479.39
2019-01-23T19:32:44.886Z,100481.62
2019-01-23T19:35:19.529Z,100484.28
2019-01-23T19:37:53.762Z,100488.32
2019-01-23T19:40:27.514Z,100488.32
2019-01-23T19:43:02.414Z,100487.97
2019-01-23T19:45:35.865Z,100492.58
2019-01-23T19:48:18.701Z,100491.45
2019-01-23T19:51:02.411Z,100488.54
2019-01-23T19:53:35.659Z,100490.64
2019-01-23T19:56:09.192Z,100504.88
2019-01-23T19:58:44.183Z,100504.20
2019-01-23T20:01:18.484Z,100508.64
2019-01-23T20:03:53.518Z,100510.02
2019-01-23T20:06:28.232Z,100513.88
2019-01-23T20:09:01.684Z,100515.19
2019-01-23T20:11:45.611Z,100511.46
2019-01-23T20:14:29.420Z,100520.48
2019-01-23T20:17:19.942Z,100518.20
2019-01-23T20:20:04.840Z,100527.21
2019-01-23T20:22:47.900Z,100523.70
2019-01-23T20:25:30.285Z,100530.62
2019-01-23T20:28:06.159Z,100534.97
2019-01-23T20:30:41.178Z,100532.03
2019-01-23T20:33:16.982Z,100530.67
2019-01-23T20:35:50.584Z,100536.28
2019-01-23T20:38:26.209Z,100529.08
2019-01-23T20:41:00.256Z,100532.61
2019-01-23T20:43:42.814Z,100538.28
2019-01-23T20:46:16.206Z,100546.49
2019-01-23T20:48:49.414Z,100545.98
2019-01-23T20:51:22.650Z,100546.49
2019-01-23T20:53:56.180Z,100549.63
2019-01-23T20:56:31.475Z,100555.38
2019-01-23T20:59:04.663Z,100550.62
2019-01-23T21:01:38.661Z,100559.52
2019-01-23T21:04:12.866Z,100559.05
2019-01-23T21:06:47.588Z,100559.83
2019-01-23T21:09:20.767Z,100566.41
2019-01-23T21:12:04.069Z,100563.73
2019-01-23T21:14:37.584Z,100569.77
2019-01-23T21:17:11.007Z,100572.40
2019-01-23T21:19:52.935Z,100574.59
2019-01-23T21:22:27.496Z,100574.56
2019-01-23T21:25:01.127Z,100577.12
2019-01-23T21:27:35.774Z,100583.11
2019-01-23T21:30:22.587Z,100580.86
2019-01-23T21:32:56.475Z,100579.36
2019-01-23T21:35:39.705Z,100585.50
2019-01-23T21:38:25.056Z,100588.38
2019-01-23T21:41:00.592Z,100586.55
2019-01-23T21:43:34.726Z,100592.63
2019-01-23T21:46:17.317Z,100592.40
2019-01-23T21:48:59.535Z,100592.28
2019-01-23T21:51:33.020Z,100596.65
2019-01-23T21:54:07.672Z,100601.17
2019-01-23T21:56:51.614Z,100590.00
2019-01-23T21:59:26.115Z,100601.64
2019-01-23T22:01:59.262Z,100605.73
2019-01-23T22:04:43.283Z,100600.37
2019-01-23T22:07:17.282Z,100605.78
2019-01-23T22:09:59.573Z,100613.86
2019-01-23T22:12:33.380Z,100607.29
2019-01-23T22:15:20.398Z,100612.24
2019-01-23T22:17:53.610Z,100604.50
2019-01-23T22:20:27.234Z,100615.18
2019-01-23T22:23:00.502Z,100614.20
2019-01-23T22:25:42.876Z,100612.01
2019-01-23T22:28:28.575Z,100611.92
2019-01-23T22:31:18.355Z,100617.19
2019-01-23T22:34:00.503Z,100616.53
2019-01-23T22:36:34.180Z,100622.45
2019-01-23T22:39:09.309Z,100622.38
2019-01-23T22:41:42.811Z,100626.63
2019-01-23T22:44:17.032Z,100627.90
2019-01-23T22:46:59.792Z,100631.58
2019-01-23T22:49:47.871Z,100630.77
2019-01-23T22:52:21.768Z,100634.67
2019-01-23T22:54:55.275Z,100640.90
2019-01-23T22:57:29.107Z,100647.33
2019-01-23T23:00:02.794Z,100657.95
2019-01-23T23:02:39.328Z,100661.11
2019-01-23T23:05:12.912Z,100659.48
2019-01-23T23:07:45.044Z,100675.55
2019-01-23T23:10:19.839Z,100677.23
2019-01-23T23:12:53.367Z,100684.10
2019-01-23T23:15:29.423Z,100687.44
2019-01-23T23:18:14.876Z,100692.59
2019-01-23T23:20:49.933Z,100696.09
2019-01-23T23:23:23.079Z,100700.03
2019-01-23T23:25:56.244Z,100702.66
2019-01-23T23:28:39.209Z,100708.77
2019-01-23T23:31:12.703Z,100711.74
2019-01-23T23:33:45.853Z,100713.58
2019-01-23T23:36:19.639Z,100715.98
2019-01-23T23:38:53.116Z,100714.82
2019-01-23T23:41:26.620Z,100720.42
2019-01-23T23:44:02.371Z,100718.61
2019-01-23T23:46:35.609Z,100717.70
2019-01-23T23:49:09.831Z,100722.56
2019-01-23T23:51:52.085Z,100720.39
2019-01-23T23:54:27.595Z,100717.98
2019-01-23T23:57:01.447Z,100727.27
2019-01-23T23:59:47.970Z,100730.25
